LFLY/LYN METAR and TAF weather

Enter ICAO airport designator
Station Type Date Time Source
LFLY METAR 2018/12/17 17:30 UTC NOAA

LFLY 171730Z AUTO 10003KT 9999 // FEW043 BKN064 07/04 Q1028


Station Type Date Time Source
LFLY Decoded METAR 2018/12/17 17:30 UTC NOAA

Lyon / Bron, France (LFLY) 45-43N 004-57E 201M
Dec 17, 2018 - 12:30 PM EST / 2018.12.17 1730 UTC
Wind: from the E (100 degrees) at 3 MPH (3 KT):0
Visibility: greater than 7 mile(s):0
Sky conditions: mostly cloudy
Temperature: 44 F (7 C)
Dew Point: 39 F (4 C)
Relative Humidity: 81%
Pressure (altimeter): 30.36 in. Hg (1028 hPa)
ob: LFLY 171730Z AUTO 10003KT 9999 // FEW043 BKN064 07/04 Q1028
cycle: 17

Station Type Date Time Source
LFLY TAF 2018/12/17 18:21 UTC NOAA

TAF TAF LFLY 171700Z 1718/1818 VRB03KT 9999 BKN026 PROB40
TEMPO 1800/1808 3000 BR PROB30
TEMPO 1803/1807 0600 BCFG BKN002
BECMG 1809/1811 18010KT CAVOK
BECMG 1812/1814 18015G25KT
TEMPO 1814/1818 18020G35KT


Example: see airport list